Colonsay, Canada
Current Conditions -  °F | °C
As of 8:00 PM on Friday 28 Nov 2014 (Local Time) from CYXE Reporting Station
Light Snow Light Snow  
Wind Chill: -30°   Ceiling: 2600
Heat Index: -19°   Visibility: 4mi
Dew Point: -22°   Wind: 14mph
Humidity: 78%   Direction: 20°NNE
Pressure: 29.66"   Gusts: NA
Location:  51.97°N, 105.87°W
Report Text: CYXE 290200Z 02012KT 4SM -SN DRSN FEW010 BKN026 OVC050 M19/M22 A2966 RMK SC2SC3SC3 SLP093
Loading
Personal Weather Stations






























Interactive Weather Map New forecast layout! Learn more

10-Day Weather Forecast

Advertisements
Track Severe Weather on mobile